Terminal Aerodrome Forecast
Issued by NWS

Home | Current Version | Previous Version | Text Only | Print | Product List | Glossary On
Versions: 1 2 3 4 5 6 7 8 9 10 11 12 13 14 15 16 17 18
000
FTUS43 KMQT 230000 AAA
TAFSAW
TAF AMD
KSAW 230029Z 2300/2324 14008KT P6SM SCT020 OVC070
     FM230300 13009KT 5SM BR OVC015
     FM230600 11009KT 3SM -SN OVC005
     FM231100 08011KT 3SM -SNPL OVC003
     FM231500 05010KT 1/2SM SN OVC003
     FM232100 05008KT 1SM -SN OVC003
      AMD LTD TO CLD VIS AND WIND 2303/2311=

USA.gov is the U.S. government's official web portal to all federal, state and local government web resources and services.